Time;durP1;ratioP1;P1;durP2;ratioP2;P2;SDS_P1;SDS_P2;PMS_P1;PMS_P2;Temp;Humidity;BMP_temperature;BMP_pressure;BME280_temperature;BME280_humidity;BME280_pressure;Samples;Min_cycle;Max_cycle;Signal;HPM_P1;HPM_P2
2022/09/09 00:01:54;;;;;;;15.45;6.57;;;;;;;;;;5070589;28;20045;-74
2022/09/09 00:04:21;;;;;;;13.90;5.85;;;;;;;;;;5070373;28;20048;-74
2022/09/09 00:06:50;;;;;;;12.65;6.03;;;;;;;;;;5070579;28;20045;-74
2022/09/09 00:09:21;;;;;;;9.00;4.72;;;;;;;;;;5070698;28;20032;-74
2022/09/09 00:12:05;;;;;;;9.60;5.50;;;;;;;;;;5060003;28;20111;-74
2022/09/09 00:14:42;;;;;;;12.27;5.70;;;;;;;;;;5069280;28;20040;-74
2022/09/09 00:17:11;;;;;;;13.43;6.70;;;;;;;;;;5070619;28;20047;-74
2022/09/09 00:19:42;;;;;;;18.35;6.43;;;;;;;;;;5054043;28;20032;-74
2022/09/09 00:22:08;;;;;;;13.27;5.55;;;;;;;;;;5070484;28;20049;-70
2022/09/09 00:24:42;;;;;;;12.40;6.20;;;;;;;;;;5059083;28;20072;-71
2022/09/09 00:27:12;;;;;;;7.57;4.72;;;;;;;;;;5050430;28;20114;-71
2022/09/09 00:29:45;;;;;;;13.43;5.88;;;;;;;;;;5051598;28;20037;-71
2022/09/09 00:32:18;;;;;;;13.90;6.15;;;;;;;;;;5033565;28;20045;-70
2022/09/09 00:34:59;;;;;;;8.55;5.43;;;;;;;;;;5033782;28;20044;-73
2022/09/09 00:37:25;;;;;;;12.57;6.18;;;;;;;;;;5051435;28;20044;-74
2022/09/09 00:39:54;;;;;;;10.50;5.63;;;;;;;;;;5051706;28;20032;-73
2022/09/09 00:42:42;;;;;;;13.05;5.82;;;;;;;;;;5051322;28;20037;-74
2022/09/09 00:45:14;;;;;;;13.50;5.82;;;;;;;;;;5050317;28;20089;-73
2022/09/09 00:47:53;;;;;;;11.02;5.40;;;;;;;;;;5050223;28;20045;-74
2022/09/09 00:50:32;;;;;;;9.02;5.75;;;;;;;;;;5050033;28;20052;-74
2022/09/09 00:53:01;;;;;;;16.98;5.47;;;;;;;;;;5033737;28;20102;-74
2022/09/09 00:55:32;;;;;;;10.88;6.20;;;;;;;;;;5050242;28;20037;-74
2022/09/09 00:57:58;;;;;;;11.73;7.40;;;;;;;;;;5033341;28;20064;-74
2022/09/09 01:00:26;;;;;;;13.82;6.95;;;;;;;;;;5051081;28;20044;-74
2022/09/09 01:03:11;;;;;;;15.48;7.47;;;;;;;;;;5054123;28;20041;-75
2022/09/09 01:05:42;;;;;;;14.48;7.72;;;;;;;;;;5053855;28;20057;-74
2022/09/09 01:08:18;;;;;;;11.73;7.25;;;;;;;;;;5053795;28;20052;-75
2022/09/09 01:10:47;;;;;;;13.77;7.07;;;;;;;;;;5053724;28;20040;-74
2022/09/09 01:13:23;;;;;;;12.95;7.47;;;;;;;;;;5062346;28;20036;-75
2022/09/09 01:15:50;;;;;;;12.43;7.43;;;;;;;;;;5056894;28;20209;-75
2022/09/09 01:18:21;;;;;;;12.73;7.72;;;;;;;;;;5040010;28;20036;-74
2022/09/09 01:21:03;;;;;;;11.82;7.68;;;;;;;;;;5073739;28;20036;-75
2022/09/09 01:24:08;;;;;;;15.43;8.13;;;;;;;;;;5066211;28;20166;-74
2022/09/09 01:26:44;;;;;;;12.77;8.00;;;;;;;;;;5052020;28;20041;-74
2022/09/09 01:29:12;;;;;;;15.65;8.32;;;;;;;;;;5035507;28;20049;-74
2022/09/09 01:31:41;;;;;;;15.05;8.25;;;;;;;;;;5037231;28;20045;-74
2022/09/09 01:34:14;;;;;;;10.20;6.20;;;;;;;;;;5052953;28;20041;-74
2022/09/09 01:36:46;;;;;;;12.88;7.43;;;;;;;;;;5053083;28;20049;-74
2022/09/09 01:39:13;;;;;;;17.98;8.48;;;;;;;;;;5036852;28;20044;-74
2022/09/09 01:41:39;;;;;;;14.25;8.85;;;;;;;;;;5035977;28;20045;-74
2022/09/09 01:44:06;;;;;;;14.07;8.55;;;;;;;;;;5054631;28;20060;-74
2022/09/09 01:46:32;;;;;;;12.15;7.88;;;;;;;;;;5052942;28;20489;-74
2022/09/09 01:48:59;;;;;;;15.77;8.80;;;;;;;;;;5036501;28;20036;-74
2022/09/09 01:51:25;;;;;;;13.32;8.20;;;;;;;;;;5052658;28;20033;-74
2022/09/09 01:53:51;;;;;;;16.45;7.85;;;;;;;;;;5054438;28;20041;-74
2022/09/09 01:56:38;;;;;;;12.80;7.20;;;;;;;;;;5052789;28;20090;-74
2022/09/09 01:59:03;;;;;;;;;;;;;;;;;;5053027;28;20084;-74
2022/09/09 02:01:43;;;;;;;11.25;7.93;;;;;;;;;;5051236;28;20385;-73
2022/09/09 02:04:16;;;;;;;11.95;7.95;;;;;;;;;;5052243;28;20371;-74
2022/09/09 02:06:43;;;;;;;12.38;8.00;;;;;;;;;;5050860;28;20052;-74
2022/09/09 02:09:11;;;;;;;11.93;7.57;;;;;;;;;;5052847;28;20456;-72
2022/09/09 02:11:38;;;;;;;11.57;7.63;;;;;;;;;;5051816;28;20032;-74
2022/09/09 02:14:16;;;;;;;14.93;7.70;;;;;;;;;;5052114;28;20052;-74
2022/09/09 02:16:53;;;;;;;13.35;7.68;;;;;;;;;;5051951;28;20063;-71
2022/09/09 02:19:25;;;;;;;12.57;7.57;;;;;;;;;;5044087;28;20501;-74
2022/09/09 02:21:53;;;;;;;11.25;7.70;;;;;;;;;;5042573;28;20036;-74
2022/09/09 02:24:19;;;;;;;14.13;7.50;;;;;;;;;;5059357;28;20083;-74
2022/09/09 02:26:46;;;;;;;15.00;8.55;;;;;;;;;;5051869;28;20041;-74
2022/09/09 02:29:15;;;;;;;12.43;8.13;;;;;;;;;;5056605;28;20036;-75
2022/09/09 02:31:42;;;;;;;14.18;7.45;;;;;;;;;;5056623;28;20513;-74
2022/09/09 02:34:10;;;;;;;13.13;7.35;;;;;;;;;;5052309;28;20513;-74
2022/09/09 02:36:37;;;;;;;12.70;7.15;;;;;;;;;;5051924;28;20520;-74
2022/09/09 02:39:05;;;;;;;14.20;6.88;;;;;;;;;;5035538;28;20043;-74
2022/09/09 02:41:33;;;;;;;10.82;7.63;;;;;;;;;;5051659;28;20037;-71
2022/09/09 02:43:59;;;;;;;18.05;8.77;;;;;;;;;;5035156;28;20132;-71
2022/09/09 02:46:30;;;;;;;11.90;8.10;;;;;;;;;;5051465;28;20048;-71
2022/09/09 02:49:06;;;;;;;15.48;8.00;;;;;;;;;;5051812;28;20128;-71
2022/09/09 02:51:48;;;;;;;12.82;8.13;;;;;;;;;;5051444;28;20037;-71
2022/09/09 02:54:23;;;;;;;19.48;8.90;;;;;;;;;;5034864;28;20040;-71
2022/09/09 02:56:54;;;;;;;11.90;7.25;;;;;;;;;;5035028;28;20506;-71
2022/09/09 02:59:21;;;;;;;14.30;7.35;;;;;;;;;;5051455;28;20064;-71
2022/09/09 03:01:47;;;;;;;14.25;7.95;;;;;;;;;;5051129;28;20063;-71
2022/09/09 03:04:14;;;;;;;14.85;7.50;;;;;;;;;;5052722;28;20120;-71
2022/09/09 03:06:40;;;;;;;14.23;8.27;;;;;;;;;;5051180;28;20456;-71
2022/09/09 03:09:07;;;;;;;14.23;7.57;;;;;;;;;;5052718;28;20363;-72
2022/09/09 03:11:34;;;;;;;11.25;7.47;;;;;;;;;;5051038;28;20052;-72
2022/09/09 03:14:01;;;;;;;14.48;7.32;;;;;;;;;;5051410;28;20398;-71
2022/09/09 03:16:27;;;;;;;15.35;7.53;;;;;;;;;;5050629;28;20037;-71
2022/09/09 03:18:53;;;;;;;16.17;7.90;;;;;;;;;;5050906;28;20052;-71
2022/09/09 03:21:19;;;;;;;12.73;7.15;;;;;;;;;;5050837;28;20072;-71
2022/09/09 03:23:45;;;;;;;13.25;6.68;;;;;;;;;;5050003;28;20041;-71
2022/09/09 03:26:11;;;;;;;15.07;6.53;;;;;;;;;;5051936;28;20040;-71
2022/09/09 03:28:37;;;;;;;12.88;6.20;;;;;;;;;;5047176;28;20505;-71
2022/09/09 03:31:05;;;;;;;10.45;5.80;;;;;;;;;;5052275;28;20412;-71
2022/09/09 03:33:31;;;;;;;11.45;6.70;;;;;;;;;;5050398;28;20037;-71
2022/09/09 03:35:57;;;;;;;13.80;5.97;;;;;;;;;;5052254;28;20434;-71
2022/09/09 03:38:24;;;;;;;11.98;6.15;;;;;;;;;;5052595;28;20451;-71
2022/09/09 03:40:55;;;;;;;11.18;6.00;;;;;;;;;;5034148;28;20047;-71
2022/09/09 03:43:22;;;;;;;11.63;5.95;;;;;;;;;;5050986;28;20098;-71
2022/09/09 03:45:48;;;;;;;7.88;6.07;;;;;;;;;;5051641;28;20506;-71
2022/09/09 03:48:15;;;;;;;10.05;5.53;;;;;;;;;;5050624;28;20107;-71
2022/09/09 03:50:47;;;;;;;10.43;5.72;;;;;;;;;;5050385;28;20091;-71
2022/09/09 03:53:14;;;;;;;9.73;5.32;;;;;;;;;;5017810;28;20033;-71
2022/09/09 03:55:45;;;;;;;9.95;5.32;;;;;;;;;;5050650;28;20435;-71
2022/09/09 03:58:11;;;;;;;10.82;5.50;;;;;;;;;;5050524;28;20061;-70
2022/09/09 04:00:42;;;;;;;11.20;6.07;;;;;;;;;;5050387;28;20053;-71
2022/09/09 04:03:08;;;;;;;12.13;7.03;;;;;;;;;;5033730;28;20033;-71
2022/09/09 04:05:34;;;;;;;14.00;8.48;;;;;;;;;;5032825;28;20045;-71
2022/09/09 04:08:00;;;;;;;12.52;8.80;;;;;;;;;;5050014;28;20045;-70
2022/09/09 04:10:26;;;;;;;15.02;9.50;;;;;;;;;;5050565;28;20037;-71
2022/09/09 04:12:52;;;;;;;16.33;9.63;;;;;;;;;;5050031;28;20072;-70
2022/09/09 04:15:19;;;;;;;17.27;9.63;;;;;;;;;;5067161;28;20033;-70
2022/09/09 04:17:45;;;;;;;17.02;10.30;;;;;;;;;;5049930;28;20049;-70
2022/09/09 04:20:12;;;;;;;17.67;10.05;;;;;;;;;;5034154;28;20045;-71
2022/09/09 04:22:41;;;;;;;14.25;9.77;;;;;;;;;;5066666;28;20045;-71
2022/09/09 04:25:07;;;;;;;17.92;10.05;;;;;;;;;;5050361;28;20125;-71
2022/09/09 04:27:33;;;;;;;15.23;9.38;;;;;;;;;;5016839;28;20497;-71
2022/09/09 04:29:59;;;;;;;14.80;9.10;;;;;;;;;;5050116;28;20441;-71
2022/09/09 04:32:28;;;;;;;16.30;9.65;;;;;;;;;;5050201;28;20115;-71
2022/09/09 04:34:54;;;;;;;16.38;9.70;;;;;;;;;;5049888;28;20040;-71
2022/09/09 04:37:20;;;;;;;14.98;9.30;;;;;;;;;;5053997;28;20072;-71
2022/09/09 04:39:46;;;;;;;16.45;9.63;;;;;;;;;;5054994;28;20040;-71
2022/09/09 04:42:12;;;;;;;13.73;9.02;;;;;;;;;;5054200;28;21006;-71
2022/09/09 04:44:40;;;;;;;15.70;9.27;;;;;;;;;;5053699;28;20040;-71
2022/09/09 04:47:06;;;;;;;15.32;9.40;;;;;;;;;;5054077;28;20068;-71
2022/09/09 04:49:32;;;;;;;14.77;8.43;;;;;;;;;;5054047;28;20041;-71
2022/09/09 04:51:58;;;;;;;15.38;9.25;;;;;;;;;;5053611;28;20144;-71
2022/09/09 04:54:24;;;;;;;18.17;9.48;;;;;;;;;;5053853;28;20060;-71
2022/09/09 04:56:51;;;;;;;15.48;9.40;;;;;;;;;;5054822;28;20057;-71
2022/09/09 04:59:17;;;;;;;15.32;9.15;;;;;;;;;;5053728;28;20068;-71
2022/09/09 05:01:43;;;;;;;15.50;9.73;;;;;;;;;;5053655;28;20041;-70
2022/09/09 05:04:09;;;;;;;14.75;8.93;;;;;;;;;;5055023;28;20044;-70
2022/09/09 05:06:36;;;;;;;15.10;9.15;;;;;;;;;;5053962;28;20052;-71
2022/09/09 05:09:02;;;;;;;16.35;9.90;;;;;;;;;;5053709;28;20520;-74
2022/09/09 05:11:29;;;;;;;14.10;8.25;;;;;;;;;;5054068;28;20045;-74
2022/09/09 05:13:58;;;;;;;12.68;8.68;;;;;;;;;;5037389;28;20549;-74
2022/09/09 05:16:25;;;;;;;16.98;9.30;;;;;;;;;;5037168;28;20052;-74
2022/09/09 05:18:51;;;;;;;16.60;9.13;;;;;;;;;;5053748;28;20049;-74
2022/09/09 05:21:17;;;;;;;14.52;9.52;;;;;;;;;;5053990;28;20041;-74
2022/09/09 05:23:43;;;;;;;14.68;9.00;;;;;;;;;;5053735;28;20037;-74
2022/09/09 05:26:12;;;;;;;15.57;8.70;;;;;;;;;;5053896;28;20471;-74
2022/09/09 05:28:39;;;;;;;15.88;8.60;;;;;;;;;;5048546;28;20076;-71
2022/09/09 05:31:07;;;;;;;17.50;9.07;;;;;;;;;;5053391;28;20037;-71
2022/09/09 05:33:34;;;;;;;16.25;9.35;;;;;;;;;;5053406;28;20405;-71
2022/09/09 05:36:02;;;;;;;16.80;8.55;;;;;;;;;;5052975;28;20126;-71
2022/09/09 05:38:29;;;;;;;13.70;8.73;;;;;;;;;;5054413;28;20499;-71
2022/09/09 05:40:56;;;;;;;17.92;9.77;;;;;;;;;;5053033;28;20048;-71
2022/09/09 05:43:23;;;;;;;17.58;9.32;;;;;;;;;;5054349;28;20049;-71
2022/09/09 05:45:49;;;;;;;16.05;9.32;;;;;;;;;;5053051;28;20567;-71
2022/09/09 05:48:15;;;;;;;16.77;9.30;;;;;;;;;;5052147;28;20436;-70
2022/09/09 05:50:42;;;;;;;14.85;9.02;;;;;;;;;;5052938;28;20120;-72
2022/09/09 05:53:09;;;;;;;14.52;8.60;;;;;;;;;;5053050;28;20501;-71
2022/09/09 05:55:35;;;;;;;17.98;8.73;;;;;;;;;;5053023;28;20107;-71
2022/09/09 05:58:01;;;;;;;13.52;8.40;;;;;;;;;;5052640;28;20429;-72
2022/09/09 06:00:27;;;;;;;15.10;9.20;;;;;;;;;;5053309;28;20045;-72
2022/09/09 06:02:53;;;;;;;17.38;9.38;;;;;;;;;;5052338;28;20072;-71
2022/09/09 06:05:20;;;;;;;16.17;9.13;;;;;;;;;;5052564;28;20033;-72
2022/09/09 06:07:46;;;;;;;15.40;9.05;;;;;;;;;;5052901;28;20037;-72
2022/09/09 06:10:13;;;;;;;15.02;8.52;;;;;;;;;;5052385;28;20041;-72
2022/09/09 06:12:40;;;;;;;12.90;8.60;;;;;;;;;;5054006;28;20072;-71
2022/09/09 06:15:07;;;;;;;19.42;9.18;;;;;;;;;;5035662;28;20041;-71
2022/09/09 06:17:33;;;;;;;14.88;8.95;;;;;;;;;;5052662;28;20124;-72
2022/09/09 06:19:59;;;;;;;13.70;8.82;;;;;;;;;;5052046;28;20060;-72
2022/09/09 06:22:25;;;;;;;14.57;8.48;;;;;;;;;;5052562;28;20037;-72
2022/09/09 06:24:51;;;;;;;13.15;8.20;;;;;;;;;;5051832;28;20087;-72
2022/09/09 06:27:17;;;;;;;13.23;8.43;;;;;;;;;;5035259;28;20513;-72
2022/09/09 06:29:43;;;;;;;10.45;7.78;;;;;;;;;;5048126;28;20036;-72
2022/09/09 06:32:09;;;;;;;10.30;7.53;;;;;;;;;;5053216;28;20041;-72
2022/09/09 06:34:36;;;;;;;9.75;7.22;;;;;;;;;;5052180;28;20066;-72
2022/09/09 06:37:02;;;;;;;11.30;7.60;;;;;;;;;;5051902;28;20093;-72
2022/09/09 06:39:28;;;;;;;14.27;7.45;;;;;;;;;;5051904;28;20124;-70
2022/09/09 06:41:55;;;;;;;10.05;7.35;;;;;;;;;;5051859;28;20120;-73
2022/09/09 06:44:22;;;;;;;9.50;6.65;;;;;;;;;;5052315;28;20048;-72
2022/09/09 06:46:49;;;;;;;11.05;7.00;;;;;;;;;;5051811;28;20049;-73
2022/09/09 06:49:15;;;;;;;13.02;7.07;;;;;;;;;;5051611;28;20485;-73
2022/09/09 06:51:43;;;;;;;10.98;6.68;;;;;;;;;;5052199;28;20124;-72
2022/09/09 06:54:09;;;;;;;9.02;6.80;;;;;;;;;;5052628;28;20029;-72
2022/09/09 06:56:36;;;;;;;14.40;6.57;;;;;;;;;;5052549;28;20041;-73
2022/09/09 06:59:04;;;;;;;9.82;6.38;;;;;;;;;;5050926;28;20048;-73
2022/09/09 07:01:35;;;;;;;8.50;5.70;;;;;;;;;;5051696;28;20052;-73
2022/09/09 07:04:02;;;;;;;9.73;5.72;;;;;;;;;;5051490;28;20048;-73
2022/09/09 07:06:28;;;;;;;12.55;5.70;;;;;;;;;;5051630;28;20049;-72
2022/09/09 07:08:58;;;;;;;6.88;5.30;;;;;;;;;;5051680;28;20083;-73
2022/09/09 07:11:26;;;;;;;7.32;5.10;;;;;;;;;;5034550;28;20047;-72
2022/09/09 07:13:53;;;;;;;9.38;5.00;;;;;;;;;;5051847;28;20516;-73
2022/09/09 07:16:20;;;;;;;8.82;4.60;;;;;;;;;;5050694;28;20033;-73
2022/09/09 07:18:46;;;;;;;10.18;4.30;;;;;;;;;;5051479;28;20059;-73
2022/09/09 07:21:13;;;;;;;7.40;4.60;;;;;;;;;;5050994;28;20497;-73
2022/09/09 07:23:39;;;;;;;7.22;4.30;;;;;;;;;;5035006;28;20511;-73
2022/09/09 07:26:13;;;;;;;8.50;4.25;;;;;;;;;;5050815;28;20444;-73
2022/09/09 07:28:40;;;;;;;7.43;3.95;;;;;;;;;;5059729;28;20094;-73
2022/09/09 07:31:07;;;;;;;8.30;4.00;;;;;;;;;;5051196;28;20045;-72
2022/09/09 07:33:34;;;;;;;5.30;3.90;;;;;;;;;;5051001;28;20033;-71
2022/09/09 07:36:05;;;;;;;8.48;3.90;;;;;;;;;;5052284;28;20040;-76
2022/09/09 07:38:31;;;;;;;8.43;3.88;;;;;;;;;;5051174;28;20497;-73
2022/09/09 07:41:17;;;;;;;5.43;3.47;;;;;;;;;;5050938;28;20094;-73
2022/09/09 07:43:45;;;;;;;7.47;3.65;;;;;;;;;;5052631;28;20041;-75
2022/09/09 07:46:12;;;;;;;7.60;3.30;;;;;;;;;;5051248;28;20397;-76
2022/09/09 07:48:39;;;;;;;6.25;3.60;;;;;;;;;;5052894;28;20051;-75
2022/09/09 07:51:11;;;;;;;6.30;3.55;;;;;;;;;;5034563;28;20041;-76
2022/09/09 07:53:38;;;;;;;5.13;3.58;;;;;;;;;;5051005;28;20037;-73
2022/09/09 07:56:09;;;;;;;6.40;3.40;;;;;;;;;;5050300;28;20512;-72
2022/09/09 07:58:36;;;;;;;7.97;3.45;;;;;;;;;;5050502;28;20202;-72
2022/09/09 08:01:06;;;;;;;11.15;3.45;;;;;;;;;;5050139;28;20124;-72
2022/09/09 08:03:32;;;;;;;8.13;3.42;;;;;;;;;;5051074;28;20053;-72
2022/09/09 08:06:06;;;;;;;8.65;3.38;;;;;;;;;;5051800;28;20115;-72
2022/09/09 08:08:33;;;;;;;6.50;3.70;;;;;;;;;;5050492;28;20057;-72
2022/09/09 08:11:07;;;;;;;7.03;3.47;;;;;;;;;;5050216;28;20474;-71
2022/09/09 08:13:34;;;;;;;9.80;3.38;;;;;;;;;;5051797;28;20033;-72
2022/09/09 08:16:07;;;;;;;8.70;2.88;;;;;;;;;;5050575;28;20494;-70
2022/09/09 08:18:33;;;;;;;9.07;3.63;;;;;;;;;;5051782;28;20398;-72
2022/09/09 08:21:05;;;;;;;7.03;3.47;;;;;;;;;;5050626;28;20482;-72
2022/09/09 08:23:31;;;;;;;5.30;2.97;;;;;;;;;;5050506;28;20033;-71
2022/09/09 08:26:04;;;;;;;7.25;3.20;;;;;;;;;;5051870;28;20047;-72
2022/09/09 08:28:30;;;;;;;8.23;2.90;;;;;;;;;;5045273;28;20047;-71
2022/09/09 08:31:04;;;;;;;6.07;3.08;;;;;;;;;;5051779;28;20044;-71
2022/09/09 08:33:30;;;;;;;7.43;3.20;;;;;;;;;;5050177;28;20044;-70
2022/09/09 08:35:56;;;;;;;7.00;3.20;;;;;;;;;;5050449;28;20059;-72
2022/09/09 08:38:23;;;;;;;7.85;3.00;;;;;;;;;;5049943;28;20076;-71
2022/09/09 08:40:49;;;;;;;8.23;2.70;;;;;;;;;;5050639;28;20037;-75
2022/09/09 08:43:17;;;;;;;9.82;3.00;;;;;;;;;;5034229;28;20037;-75
2022/09/09 08:46:03;;;;;;;7.88;2.97;;;;;;;;;;5050911;28;20045;-76
2022/09/09 08:48:41;;;;;;;8.52;2.90;;;;;;;;;;5067148;28;20522;-70
2022/09/09 08:51:08;;;;;;;6.53;2.83;;;;;;;;;;5036561;28;20470;-74
2022/09/09 08:53:47;;;;;;;10.60;2.85;;;;;;;;;;5051168;28;20037;-73
2022/09/09 08:56:19;;;;;;;6.90;2.60;;;;;;;;;;5037087;28;20608;-75
2022/09/09 08:58:49;;;;;;;7.65;2.30;;;;;;;;;;5051586;28;20057;-75
2022/09/09 09:01:34;;;;;;;5.47;2.60;;;;;;;;;;5051918;28;20126;-75
2022/09/09 09:04:03;;;;;;;8.85;2.70;;;;;;;;;;5050853;28;20076;-75
2022/09/09 09:06:29;;;;;;;7.07;2.90;;;;;;;;;;5050450;28;20052;-75
2022/09/09 09:09:02;;;;;;;8.43;2.95;;;;;;;;;;5050670;28;20056;-75
2022/09/09 09:11:35;;;;;;;8.25;2.60;;;;;;;;;;5050706;28;20048;-75
2022/09/09 09:14:04;;;;;;;6.80;2.55;;;;;;;;;;5050988;28;20507;-75
2022/09/09 09:16:32;;;;;;;7.22;2.60;;;;;;;;;;5051758;28;20045;-75
2022/09/09 09:18:59;;;;;;;9.10;2.70;;;;;;;;;;5050863;28;20076;-75
2022/09/09 09:21:35;;;;;;;7.55;2.83;;;;;;;;;;5049374;28;20041;-70
2022/09/09 09:24:01;;;;;;;7.60;3.00;;;;;;;;;;5053093;28;20041;-70
2022/09/09 09:26:31;;;;;;;9.98;2.55;;;;;;;;;;5054381;28;20037;-70
2022/09/09 09:28:59;;;;;;;7.45;2.75;;;;;;;;;;5048482;28;20041;-71
2022/09/09 09:31:26;;;;;;;7.93;2.58;;;;;;;;;;5053083;28;20448;-70
2022/09/09 09:33:58;;;;;;;7.80;2.40;;;;;;;;;;5053192;28;20037;-70
2022/09/09 09:36:46;;;;;;;9.15;2.00;;;;;;;;;;5053272;28;20049;-72
2022/09/09 09:39:23;;;;;;;8.63;1.80;;;;;;;;;;5036457;28;20095;-71
2022/09/09 09:41:49;;;;;;;6.47;1.60;;;;;;;;;;5053547;28;20379;-70
2022/09/09 09:44:24;;;;;;;5.72;1.77;;;;;;;;;;5052512;28;20045;-70
2022/09/09 09:46:50;;;;;;;6.13;1.70;;;;;;;;;;5053097;28;20045;-70
2022/09/09 09:49:17;;;;;;;6.00;1.70;;;;;;;;;;5052542;28;20072;-70
2022/09/09 09:51:43;;;;;;;5.97;1.58;;;;;;;;;;5053029;28;20053;-70
2022/09/09 09:54:16;;;;;;;6.38;1.63;;;;;;;;;;5053161;28;20477;-70
2022/09/09 09:56:43;;;;;;;9.55;1.70;;;;;;;;;;5054210;28;20037;-71
2022/09/09 09:59:24;;;;;;;7.63;2.00;;;;;;;;;;5052617;28;20059;-71
2022/09/09 10:01:50;;;;;;;6.13;1.70;;;;;;;;;;5052932;28;20083;-71
2022/09/09 10:04:19;;;;;;;5.68;1.75;;;;;;;;;;5052588;28;20125;-70
2022/09/09 10:06:46;;;;;;;7.68;1.77;;;;;;;;;;5053078;28;20494;-70
2022/09/09 10:09:26;;;;;;;6.78;1.60;;;;;;;;;;5052433;28;20120;-70
2022/09/09 10:12:06;;;;;;;11.38;1.80;;;;;;;;;;5052899;28;20049;-71
2022/09/09 10:14:38;;;;;;;9.32;1.50;;;;;;;;;;5035539;28;20091;-70
2022/09/09 10:17:11;;;;;;;5.88;1.55;;;;;;;;;;5052930;28;20452;-70
2022/09/09 10:19:38;;;;;;;7.07;1.50;;;;;;;;;;5052066;28;20049;-71
2022/09/09 10:22:23;;;;;;;7.70;1.70;;;;;;;;;;5052649;28;20095;-70
2022/09/09 10:24:50;;;;;;;6.95;1.63;;;;;;;;;;5035887;28;20051;-70
2022/09/09 10:27:20;;;;;;;5.57;1.60;;;;;;;;;;5035272;28;20103;-70
2022/09/09 10:29:55;;;;;;;8.73;1.55;;;;;;;;;;5032091;28;20041;-69
2022/09/09 10:32:40;;;;;;;6.93;1.67;;;;;;;;;;5051885;28;20044;-69
2022/09/09 10:35:20;;;;;;;5.80;1.50;;;;;;;;;;5053279;28;20041;-69
2022/09/09 10:37:54;;;;;;;7.60;1.70;;;;;;;;;;5052581;28;20048;-75
2022/09/09 10:40:26;;;;;;;8.13;1.60;;;;;;;;;;5054548;28;20440;-76
2022/09/09 10:42:55;;;;;;;6.47;1.63;;;;;;;;;;5054309;28;20113;-75
2022/09/09 10:45:33;;;;;;;7.78;1.92;;;;;;;;;;5052537;28;20036;-76
2022/09/09 10:48:11;;;;;;;6.55;1.67;;;;;;;;;;5057723;28;20083;-74
2022/09/09 10:50:56;;;;;;;6.75;1.60;;;;;;;;;;5052003;28;20045;-70
2022/09/09 10:53:34;;;;;;;6.03;1.80;;;;;;;;;;5051463;28;20045;-70
2022/09/09 10:56:05;;;;;;;7.32;1.77;;;;;;;;;;5051884;28;20036;-69
2022/09/09 10:58:38;;;;;;;7.82;1.80;;;;;;;;;;5052545;28;20079;-70
2022/09/09 11:01:15;;;;;;;7.85;2.30;;;;;;;;;;5035037;28;20036;-70
2022/09/09 11:03:42;;;;;;;4.88;1.70;;;;;;;;;;5052591;28;20520;-70
2022/09/09 11:06:20;;;;;;;10.35;1.90;;;;;;;;;;5051878;28;20036;-70
2022/09/09 11:08:47;;;;;;;7.13;1.50;;;;;;;;;;5034735;28;20044;-70
2022/09/09 11:11:17;;;;;;;6.97;2.17;;;;;;;;;;5051806;28;20493;-71
2022/09/09 11:13:48;;;;;;;10.43;2.30;;;;;;;;;;5051409;28;20048;-71
2022/09/09 11:16:33;;;;;;;5.28;1.80;;;;;;;;;;5035007;28;20469;-70
2022/09/09 11:19:11;;;;;;;7.63;1.80;;;;;;;;;;5051458;28;20045;-70
2022/09/09 11:21:41;;;;;;;9.00;2.17;;;;;;;;;;5051094;28;20041;-70
2022/09/09 11:24:11;;;;;;;9.13;2.75;;;;;;;;;;5051738;28;20037;-70
2022/09/09 11:26:39;;;;;;;5.72;2.00;;;;;;;;;;5050886;28;20072;-70
2022/09/09 11:29:14;;;;;;;8.27;2.10;;;;;;;;;;5046700;28;20570;-70
2022/09/09 11:31:53;;;;;;;7.53;2.22;;;;;;;;;;5051891;28;20115;-70
2022/09/09 11:34:22;;;;;;;9.60;2.10;;;;;;;;;;5052580;28;20120;-71
2022/09/09 11:36:48;;;;;;;7.93;2.35;;;;;;;;;;5034088;28;20043;-70
2022/09/09 11:39:23;;;;;;;9.57;2.10;;;;;;;;;;5052344;28;20462;-70
2022/09/09 11:41:49;;;;;;;9.02;2.05;;;;;;;;;;5050947;28;20111;-71
2022/09/09 11:44:26;;;;;;;9.27;2.35;;;;;;;;;;5052122;28;20033;-71
2022/09/09 11:46:52;;;;;;;6.53;1.92;;;;;;;;;;5051699;28;20045;-69
2022/09/09 11:49:28;;;;;;;8.68;1.83;;;;;;;;;;5052013;28;20033;-70
2022/09/09 11:51:54;;;;;;;8.40;1.98;;;;;;;;;;5052249;28;20071;-69
2022/09/09 11:54:31;;;;;;;7.25;1.77;;;;;;;;;;5050615;28;20123;-71
2022/09/09 11:56:58;;;;;;;8.10;2.20;;;;;;;;;;5051126;28;20056;-70
2022/09/09 11:59:31;;;;;;;6.78;1.83;;;;;;;;;;5050532;28;20106;-69
2022/09/09 12:01:59;;;;;;;4.93;1.83;;;;;;;;;;5050765;28;20088;-70
2022/09/09 12:04:25;;;;;;;5.82;1.60;;;;;;;;;;5050711;28;20086;-70
2022/09/09 12:07:04;;;;;;;8.57;1.73;;;;;;;;;;5050362;28;20120;-70
2022/09/09 12:09:48;;;;;;;7.47;1.60;;;;;;;;;;5033642;28;20125;-70
2022/09/09 12:12:14;;;;;;;5.47;1.55;;;;;;;;;;5050717;28;20045;-70
2022/09/09 12:14:44;;;;;;;6.75;1.73;;;;;;;;;;5033659;28;20033;-69
2022/09/09 12:17:20;;;;;;;6.18;1.60;;;;;;;;;;5050495;28;20063;-70
2022/09/09 12:19:47;;;;;;;5.60;1.60;;;;;;;;;;5051481;28;20417;-70
2022/09/09 12:22:19;;;;;;;5.65;1.88;;;;;;;;;;5034105;28;20044;-68
2022/09/09 12:25:00;;;;;;;5.00;1.70;;;;;;;;;;5049984;28;20127;-70
2022/09/09 12:27:41;;;;;;;7.78;1.75;;;;;;;;;;5048858;28;20088;-71
2022/09/09 12:30:12;;;;;;;5.80;2.28;;;;;;;;;;5049551;28;20033;-71
2022/09/09 12:32:38;;;;;;;9.32;2.35;;;;;;;;;;5050057;28;20033;-71
2022/09/09 12:35:12;;;;;;;8.48;2.33;;;;;;;;;;5050445;28;20044;-71
2022/09/09 12:37:41;;;;;;;7.18;2.20;;;;;;;;;;5051313;28;20091;-71
2022/09/09 12:40:21;;;;;;;10.15;2.20;;;;;;;;;;5050462;28;20045;-70
2022/09/09 12:42:48;;;;;;;6.78;2.05;;;;;;;;;;5050936;28;20084;-75
2022/09/09 12:45:17;;;;;;;4.95;1.80;;;;;;;;;;5051126;28;20052;-75
2022/09/09 12:47:47;;;;;;;5.97;1.90;;;;;;;;;;5034106;28;20037;-75
2022/09/09 12:50:18;;;;;;;8.45;2.00;;;;;;;;;;5051071;28;20060;-75
2022/09/09 12:52:45;;;;;;;5.15;2.10;;;;;;;;;;5050664;28;20040;-74
2022/09/09 12:55:23;;;;;;;6.65;1.70;;;;;;;;;;5050951;28;20102;-76
2022/09/09 12:57:53;;;;;;;5.78;1.40;;;;;;;;;;5053690;28;20060;-75
2022/09/09 13:00:22;;;;;;;5.47;2.03;;;;;;;;;;5054815;28;20048;-75
2022/09/09 13:02:52;;;;;;;5.88;1.90;;;;;;;;;;5054469;28;20077;-75
2022/09/09 13:05:23;;;;;;;3.72;1.67;;;;;;;;;;5056019;28;20048;-75
2022/09/09 13:07:50;;;;;;;4.78;1.65;;;;;;;;;;5037815;28;20044;-75
2022/09/09 13:10:22;;;;;;;5.53;1.48;;;;;;;;;;5054850;28;20041;-75
2022/09/09 13:12:49;;;;;;;5.10;1.52;;;;;;;;;;5054595;28;20037;-75
2022/09/09 13:15:20;;;;;;;5.85;1.55;;;;;;;;;;5054542;28;20045;-75
2022/09/09 13:17:50;;;;;;;5.32;1.33;;;;;;;;;;5054815;28;20527;-75
2022/09/09 13:20:17;;;;;;;5.32;1.45;;;;;;;;;;5054448;28;20049;-75
2022/09/09 13:22:44;;;;;;;4.53;1.30;;;;;;;;;;5053932;28;20041;-74
2022/09/09 13:25:10;;;;;;;4.07;1.05;;;;;;;;;;5055223;28;20040;-74
2022/09/09 13:27:42;;;;;;;4.35;1.08;;;;;;;;;;5054255;28;20102;-74
2022/09/09 13:30:25;;;;;;;5.35;1.40;;;;;;;;;;5037398;28;20064;-73
2022/09/09 13:33:01;;;;;;;5.40;1.55;;;;;;;;;;5037893;28;20044;-75
2022/09/09 13:35:28;;;;;;;3.40;1.40;;;;;;;;;;5053605;28;20044;-69
2022/09/09 13:37:54;;;;;;;4.85;1.70;;;;;;;;;;5036812;28;20405;-70
2022/09/09 13:40:24;;;;;;;5.95;1.55;;;;;;;;;;5053123;28;20052;-70
2022/09/09 13:42:56;;;;;;;5.22;1.67;;;;;;;;;;5036420;28;20128;-70
2022/09/09 13:45:24;;;;;;;6.63;1.70;;;;;;;;;;5052962;28;20045;-70
2022/09/09 13:47:52;;;;;;;5.95;1.90;;;;;;;;;;5052835;28;20052;-70
2022/09/09 13:50:20;;;;;;;6.10;1.67;;;;;;;;;;5036711;28;20033;-70
2022/09/09 13:52:47;;;;;;;6.55;1.83;;;;;;;;;;5054057;28;20045;-70
2022/09/09 13:55:13;;;;;;;5.43;2.00;;;;;;;;;;5053253;28;20486;-70
2022/09/09 13:57:39;;;;;;;6.93;1.70;;;;;;;;;;5052703;28;20051;-70
2022/09/09 14:00:08;;;;;;;4.43;1.40;;;;;;;;;;5036349;28;20040;-69
2022/09/09 14:02:35;;;;;;;6.68;1.90;;;;;;;;;;5052875;28;20135;-69
2022/09/09 14:05:01;;;;;;;20.10;2.08;;;;;;;;;;5052666;28;20045;-70
2022/09/09 14:07:28;;;;;;;6.13;1.83;;;;;;;;;;5052668;28;20120;-70
2022/09/09 14:09:54;;;;;;;4.40;1.45;;;;;;;;;;5052302;28;20041;-71
2022/09/09 14:12:20;;;;;;;3.85;1.60;;;;;;;;;;5052952;28;20410;-71
2022/09/09 14:14:46;;;;;;;4.57;1.60;;;;;;;;;;5052200;28;20040;-71
2022/09/09 14:17:12;;;;;;;6.20;1.73;;;;;;;;;;5052642;28;20072;-70
2022/09/09 14:19:38;;;;;;;4.43;1.63;;;;;;;;;;5053629;28;20556;-70
2022/09/09 14:22:04;;;;;;;5.95;1.90;;;;;;;;;;5052137;28;20287;-70
2022/09/09 14:24:30;;;;;;;6.22;1.70;;;;;;;;;;5053806;28;20037;-70
2022/09/09 14:26:56;;;;;;;3.67;1.50;;;;;;;;;;5053075;28;20047;-70
2022/09/09 14:29:24;;;;;;;4.82;1.77;;;;;;;;;;5048790;28;20498;-70
2022/09/09 14:31:50;;;;;;;4.95;1.65;;;;;;;;;;5051822;28;20045;-70
2022/09/09 14:34:17;;;;;;;6.47;1.52;;;;;;;;;;5052237;28;20048;-71
2022/09/09 14:36:44;;;;;;;5.20;1.60;;;;;;;;;;5053089;28;20063;-69
2022/09/09 14:39:10;;;;;;;12.13;2.75;;;;;;;;;;5052112;28;20452;-72
2022/09/09 14:41:37;;;;;;;6.28;1.90;;;;;;;;;;5053498;28;20041;-73
2022/09/09 14:44:03;;;;;;;5.50;1.83;;;;;;;;;;5051666;28;20048;-74
2022/09/09 14:46:30;;;;;;;5.72;1.80;;;;;;;;;;5051908;28;20095;-73
2022/09/09 14:48:56;;;;;;;6.28;1.80;;;;;;;;;;5051732;28;20049;-73
2022/09/09 14:51:24;;;;;;;5.55;1.67;;;;;;;;;;5051839;28;20044;-73
2022/09/09 14:53:54;;;;;;;4.70;1.90;;;;;;;;;;5051859;28;20037;-73